Concord Farragut, Tennessee
Current Conditions -  °F | °C
As of 5:53 PM on Tuesday 21 Oct 2014 (Local Time) from KTYS Reporting Station
Scattered Clouds Scattered Clouds  
Wind Chill: 66°   Ceiling: Unl
Heat Index: 66°   Visibility: 10mi
Dew Point: 43°   Wind: 8mph
Humidity: 43%   Direction: 330°NNW
Pressure: 29.99"   Gusts: NA
Location:  35.9637°N, 83.9157°W
Report Text: KTYS 212153Z 33007KT 10SM SCT060 19/06 A2999 RMK AO2 SLP149 T01890061
Loading
Personal Weather Stations






























Interactive Weather Map
Tropical Storm Tracking
New forecast layout! Learn more

10-Day Weather Forecast

Advertisements
Track Severe Weather on mobile